createdAt,value
2018-10-05T00:01:46.637Z,9.00
2018-10-05T00:04:14.350Z,8.90
2018-10-05T00:06:42.100Z,8.90
2018-10-05T00:09:11.428Z,8.90
2018-10-05T00:11:39.109Z,8.90
2018-10-05T00:14:06.814Z,8.90
2018-10-05T00:16:34.476Z,8.90
2018-10-05T00:19:02.323Z,8.90
2018-10-05T00:21:30.041Z,8.90
2018-10-05T00:23:57.736Z,8.90
2018-10-05T00:26:25.413Z,8.90
2018-10-05T00:28:53.124Z,8.80
2018-10-05T00:31:20.810Z,8.80
2018-10-05T00:33:48.512Z,8.70
2018-10-05T00:36:16.236Z,8.70
2018-10-05T00:38:43.945Z,8.70
2018-10-05T00:41:11.696Z,8.70
2018-10-05T00:43:39.405Z,8.70
2018-10-05T00:46:07.117Z,8.70
2018-10-05T00:48:34.837Z,8.70
2018-10-05T00:51:02.505Z,8.70
2018-10-05T00:53:30.224Z,8.70
2018-10-05T00:55:57.889Z,8.70
2018-10-05T00:58:25.553Z,8.60
2018-10-05T01:00:53.224Z,8.60
2018-10-05T01:03:20.897Z,8.60
2018-10-05T01:05:48.596Z,8.60
2018-10-05T01:08:16.260Z,8.50
2018-10-05T01:10:43.973Z,8.50
2018-10-05T01:13:11.678Z,8.40
2018-10-05T01:15:39.392Z,8.40
2018-10-05T01:19:36.375Z,8.40
2018-10-05T01:22:04.270Z,8.40
2018-10-05T01:24:31.973Z,8.40
2018-10-05T01:26:59.679Z,8.40
2018-10-05T01:29:27.458Z,8.40
2018-10-05T01:31:55.158Z,8.30
2018-10-05T01:34:22.818Z,8.40
2018-10-05T01:36:50.536Z,8.30
2018-10-05T01:39:18.214Z,8.30
2018-10-05T01:43:15.201Z,8.30
2018-10-05T01:45:42.944Z,8.20
2018-10-05T01:48:10.724Z,8.10
2018-10-05T01:50:38.445Z,8.00
2018-10-05T01:53:06.148Z,8.00
2018-10-05T01:55:33.916Z,7.90
2018-10-05T01:58:01.589Z,7.80
2018-10-05T02:00:29.293Z,7.80
2018-10-05T02:02:56.995Z,7.70
2018-10-05T02:05:24.759Z,7.80
2018-10-05T02:07:52.625Z,7.80
2018-10-05T02:10:20.464Z,7.80
2018-10-05T02:12:48.165Z,7.90
2018-10-05T02:15:15.873Z,7.80
2018-10-05T02:17:43.575Z,7.70
2018-10-05T02:20:11.309Z,7.70
2018-10-05T02:22:39.021Z,7.70
2018-10-05T02:25:06.828Z,7.60
2018-10-05T02:27:34.555Z,7.50
2018-10-05T02:30:02.230Z,7.60
2018-10-05T02:32:29.933Z,7.70
2018-10-05T02:34:57.605Z,7.70
2018-10-05T02:37:25.311Z,7.70
2018-10-05T02:39:52.988Z,7.70
2018-10-05T02:42:20.729Z,7.70
2018-10-05T02:44:48.389Z,7.70
2018-10-05T02:47:16.096Z,7.70
2018-10-05T02:49:43.832Z,7.60
2018-10-05T02:52:11.588Z,7.60
2018-10-05T02:54:39.289Z,7.50
2018-10-05T02:57:06.990Z,7.40
2018-10-05T02:59:34.685Z,7.40
2018-10-05T03:02:07.928Z,7.40
2018-10-05T03:04:35.629Z,7.30
2018-10-05T03:07:03.334Z,7.30
2018-10-05T03:09:31.059Z,7.20
2018-10-05T03:11:58.766Z,7.30
2018-10-05T03:14:26.484Z,7.30
2018-10-05T03:16:54.201Z,7.30
2018-10-05T03:19:21.878Z,7.40
2018-10-05T03:21:49.581Z,7.40
2018-10-05T03:24:17.281Z,7.40
2018-10-05T03:26:44.969Z,7.40
2018-10-05T03:29:12.685Z,7.40
2018-10-05T03:31:40.385Z,7.30
2018-10-05T03:34:08.065Z,7.30
2018-10-05T03:36:35.776Z,7.20
2018-10-05T03:39:03.727Z,7.20
2018-10-05T03:41:31.433Z,7.10
2018-10-05T03:43:59.136Z,7.10
2018-10-05T03:46:26.809Z,7.10
2018-10-05T03:48:54.513Z,7.10
2018-10-05T03:51:22.237Z,7.20
2018-10-05T03:53:49.957Z,7.10
2018-10-05T03:56:17.659Z,7.10
2018-10-05T03:58:45.368Z,7.10
2018-10-05T04:01:13.049Z,7.00
2018-10-05T04:03:40.753Z,7.00
2018-10-05T04:06:08.425Z,6.90
2018-10-05T04:08:36.241Z,6.90
2018-10-05T04:11:03.922Z,6.90
2018-10-05T04:13:31.633Z,6.80
2018-10-05T04:15:59.314Z,6.80
2018-10-05T04:18:27.027Z,6.80
2018-10-05T04:20:54.688Z,6.80
2018-10-05T04:23:22.357Z,6.80
2018-10-05T04:25:50.212Z,6.80
2018-10-05T04:28:17.913Z,6.80
2018-10-05T04:30:45.625Z,6.80
2018-10-05T04:33:13.365Z,6.70
2018-10-05T04:35:41.077Z,6.70
2018-10-05T04:38:08.733Z,6.70
2018-10-05T04:40:36.416Z,6.70
2018-10-05T04:43:04.123Z,6.70
2018-10-05T04:45:31.845Z,6.70
2018-10-05T04:47:59.505Z,6.60
2018-10-05T04:50:27.204Z,6.60
2018-10-05T04:52:54.908Z,6.60
2018-10-05T04:55:22.568Z,6.60
2018-10-05T04:57:50.273Z,6.60
2018-10-05T05:00:17.949Z,6.60
2018-10-05T05:02:45.725Z,6.60
2018-10-05T05:05:13.469Z,6.50
2018-10-05T05:07:41.172Z,6.50
2018-10-05T05:10:08.841Z,6.50
2018-10-05T05:12:36.497Z,6.50
2018-10-05T05:15:04.516Z,6.50
2018-10-05T05:17:32.218Z,6.50
2018-10-05T05:19:59.879Z,6.50
2018-10-05T05:22:27.548Z,6.50
2018-10-05T05:24:55.238Z,6.50
2018-10-05T05:27:22.976Z,6.50
2018-10-05T05:29:50.736Z,6.50
2018-10-05T05:32:18.437Z,6.50
2018-10-05T05:34:46.149Z,6.50
2018-10-05T05:37:13.857Z,6.50
2018-10-05T05:39:41.573Z,6.50
2018-10-05T05:42:09.261Z,6.50
2018-10-05T05:44:36.956Z,6.60
2018-10-05T05:47:04.661Z,6.60
2018-10-05T05:49:32.366Z,6.60
2018-10-05T05:52:00.124Z,6.70
2018-10-05T05:54:27.853Z,6.70
2018-10-05T05:56:55.565Z,6.70
2018-10-05T05:59:23.250Z,6.80
2018-10-05T06:01:50.976Z,6.80
2018-10-05T06:04:18.674Z,6.90
2018-10-05T06:06:46.348Z,7.00
2018-10-05T06:09:14.077Z,7.20
2018-10-05T06:11:42.348Z,7.30
2018-10-05T06:14:10.110Z,7.40
2018-10-05T06:16:37.833Z,7.50
2018-10-05T06:19:05.531Z,7.60
2018-10-05T06:21:33.266Z,7.70
2018-10-05T06:24:00.965Z,7.70
2018-10-05T06:26:28.731Z,7.80
2018-10-05T06:28:56.425Z,7.80
2018-10-05T06:31:24.109Z,7.90
2018-10-05T06:33:51.820Z,7.90
2018-10-05T06:36:19.585Z,8.00
2018-10-05T06:38:47.281Z,8.00
2018-10-05T06:41:15.041Z,8.00
2018-10-05T06:43:42.753Z,8.10
2018-10-05T06:46:10.470Z,8.10
2018-10-05T06:48:38.219Z,8.20
2018-10-05T06:51:05.996Z,8.20
2018-10-05T06:53:33.713Z,8.30
2018-10-05T06:56:01.425Z,8.30
2018-10-05T06:58:29.137Z,8.40
2018-10-05T07:00:56.897Z,8.40
2018-10-05T07:03:24.954Z,8.40
2018-10-05T07:05:53.649Z,8.60
2018-10-05T07:08:21.350Z,8.60
2018-10-05T07:10:49.028Z,8.70
2018-10-05T07:13:16.733Z,8.70
2018-10-05T07:15:44.432Z,8.80
2018-10-05T07:18:12.192Z,8.90
2018-10-05T07:20:39.932Z,8.90
2018-10-05T07:23:07.669Z,9.00
2018-10-05T07:25:35.387Z,9.00
2018-10-05T07:28:03.103Z,9.10
2018-10-05T07:30:30.838Z,9.20
2018-10-05T07:32:58.530Z,9.20
2018-10-05T07:35:26.208Z,9.30
2018-10-05T07:37:53.995Z,9.40
2018-10-05T07:40:21.638Z,9.50
2018-10-05T07:42:49.369Z,9.60
2018-10-05T07:45:17.056Z,9.60
2018-10-05T07:47:44.773Z,9.70
2018-10-05T07:50:12.476Z,9.80
2018-10-05T07:52:40.281Z,9.90
2018-10-05T07:55:07.956Z,10.00
2018-10-05T07:57:35.762Z,10.10
2018-10-05T08:00:03.425Z,10.20
2018-10-05T08:02:31.181Z,10.30
2018-10-05T08:04:58.893Z,10.30
2018-10-05T08:07:26.588Z,10.50
2018-10-05T08:09:55.324Z,10.60
2018-10-05T08:12:23.050Z,10.70
2018-10-05T08:14:50.722Z,10.90
2018-10-05T08:17:18.520Z,11.10
2018-10-05T08:19:46.236Z,11.30
2018-10-05T08:22:13.929Z,11.40
2018-10-05T08:24:41.753Z,11.60
2018-10-05T08:27:09.491Z,11.70
2018-10-05T08:29:37.185Z,11.90
2018-10-05T08:32:04.933Z,12.00
2018-10-05T08:34:32.703Z,12.10
2018-10-05T08:37:00.385Z,12.30
2018-10-05T08:39:28.167Z,12.40
2018-10-05T08:41:55.880Z,12.50
2018-10-05T08:44:23.566Z,12.60
2018-10-05T08:46:51.281Z,12.80
2018-10-05T08:49:18.966Z,12.90
2018-10-05T08:51:46.786Z,13.00
2018-10-05T08:54:14.433Z,13.10
2018-10-05T08:56:42.260Z,13.30
2018-10-05T08:59:09.941Z,13.40
2018-10-05T09:01:37.666Z,13.50
2018-10-05T09:04:05.332Z,13.60
2018-10-05T09:06:33.044Z,13.70
2018-10-05T09:09:00.939Z,13.80
2018-10-05T09:11:28.809Z,13.80
2018-10-05T09:13:56.537Z,13.90
2018-10-05T09:16:24.249Z,14.00
2018-10-05T09:18:51.948Z,14.10
2018-10-05T09:21:19.671Z,14.20
2018-10-05T09:23:47.380Z,14.30
2018-10-05T09:26:15.081Z,14.50
2018-10-05T09:28:42.797Z,14.50
2018-10-05T09:31:10.492Z,14.50
2018-10-05T09:33:38.202Z,14.60
2018-10-05T09:36:05.936Z,14.70
2018-10-05T09:38:34.014Z,14.70
2018-10-05T09:41:01.761Z,14.90
2018-10-05T09:43:29.456Z,14.90
2018-10-05T09:45:57.201Z,15.00
2018-10-05T09:48:24.909Z,15.00
2018-10-05T09:50:52.597Z,15.10
2018-10-05T09:53:20.356Z,15.30
2018-10-05T09:55:48.041Z,15.50
2018-10-05T09:58:15.756Z,15.60
2018-10-05T10:00:48.934Z,15.70
2018-10-05T10:03:22.066Z,15.80
2018-10-05T10:05:49.793Z,15.90
2018-10-05T10:08:17.480Z,16.00
2018-10-05T10:10:45.213Z,16.20
2018-10-05T10:13:12.896Z,16.30
2018-10-05T10:15:40.566Z,16.30
2018-10-05T10:18:08.289Z,16.50
2018-10-05T10:20:36.013Z,16.70
2018-10-05T10:23:03.702Z,16.80
2018-10-05T10:25:31.509Z,16.90
2018-10-05T10:27:59.378Z,17.10
2018-10-05T10:30:27.097Z,17.20
2018-10-05T10:32:54.785Z,17.40
2018-10-05T10:35:22.521Z,17.60
2018-10-05T10:37:50.231Z,17.70
2018-10-05T10:40:19.013Z,17.80
2018-10-05T10:42:46.775Z,18.00
2018-10-05T10:45:14.447Z,18.10
2018-10-05T10:47:42.213Z,18.20
2018-10-05T10:50:09.910Z,18.30
2018-10-05T10:52:37.609Z,18.40
2018-10-05T10:55:05.387Z,18.60
2018-10-05T10:57:33.418Z,18.70
2018-10-05T11:00:01.331Z,19.00
2018-10-05T11:02:29.061Z,19.20
2018-10-05T11:04:56.813Z,19.50
2018-10-05T11:07:24.525Z,19.70
2018-10-05T11:09:52.381Z,19.90
2018-10-05T11:12:20.109Z,20.20
2018-10-05T11:14:47.837Z,20.30
2018-10-05T11:17:15.549Z,20.50
2018-10-05T11:19:43.279Z,20.70
2018-10-05T11:22:10.982Z,20.80
2018-10-05T11:24:38.686Z,21.00
2018-10-05T11:27:06.842Z,21.10
2018-10-05T11:29:34.587Z,21.20
2018-10-05T11:32:02.288Z,21.40
2018-10-05T11:34:29.965Z,21.60
2018-10-05T11:36:57.703Z,21.80
2018-10-05T11:39:25.449Z,21.90
2018-10-05T11:41:53.161Z,22.10
2018-10-05T11:44:20.829Z,22.30
2018-10-05T11:46:48.541Z,22.50
2018-10-05T11:49:16.249Z,22.70
2018-10-05T11:51:43.962Z,22.80
2018-10-05T11:54:11.661Z,22.90
2018-10-05T11:56:39.425Z,23.00
2018-10-05T11:59:07.100Z,23.20
2018-10-05T12:01:34.838Z,23.30
2018-10-05T12:04:02.516Z,23.40
2018-10-05T12:06:30.233Z,23.50
2018-10-05T12:08:58.141Z,23.60
2018-10-05T12:11:25.902Z,23.70
2018-10-05T12:13:53.794Z,23.80
2018-10-05T12:16:21.442Z,24.00
2018-10-05T12:18:49.145Z,24.20
2018-10-05T12:21:16.854Z,24.40
2018-10-05T12:23:44.653Z,24.60
2018-10-05T12:26:12.359Z,24.90
2018-10-05T12:28:40.062Z,25.10
2018-10-05T12:31:07.777Z,25.20
2018-10-05T12:33:35.523Z,25.30
2018-10-05T12:36:03.354Z,25.50
2018-10-05T12:38:31.067Z,25.80
2018-10-05T12:40:58.823Z,25.90
2018-10-05T12:43:26.630Z,26.00
2018-10-05T12:45:54.305Z,26.10
2018-10-05T12:48:22.012Z,26.20
2018-10-05T12:50:49.706Z,26.30
2018-10-05T12:53:17.499Z,26.30
2018-10-05T12:55:45.206Z,26.40
2018-10-05T12:58:13.003Z,26.40
2018-10-05T13:00:40.781Z,26.40
2018-10-05T13:03:08.461Z,26.50
2018-10-05T13:05:36.183Z,26.70
2018-10-05T13:08:03.869Z,26.60
2018-10-05T13:10:31.553Z,26.70
2018-10-05T13:12:59.396Z,26.80
2018-10-05T13:15:27.070Z,26.80
2018-10-05T13:17:54.805Z,26.90
2018-10-05T13:20:22.517Z,26.90
2018-10-05T13:22:50.217Z,26.90
2018-10-05T13:25:17.937Z,26.90
2018-10-05T13:27:45.650Z,26.80
2018-10-05T13:30:13.337Z,26.80
2018-10-05T13:32:41.063Z,26.80
2018-10-05T13:35:08.865Z,26.70
2018-10-05T13:37:36.549Z,26.70
2018-10-05T13:40:04.293Z,26.70
2018-10-05T13:42:32.004Z,26.70
2018-10-05T13:44:59.726Z,26.70
2018-10-05T13:47:27.412Z,26.60
2018-10-05T13:49:55.143Z,26.50
2018-10-05T13:52:22.838Z,26.50
2018-10-05T13:54:50.514Z,26.40
2018-10-05T13:57:18.246Z,26.40
2018-10-05T13:59:45.946Z,26.40
2018-10-05T14:02:13.625Z,26.30
2018-10-05T14:04:41.324Z,26.20
2018-10-05T14:07:09.042Z,26.20
2018-10-05T14:09:36.743Z,26.10
2018-10-05T14:12:04.472Z,26.10
2018-10-05T14:14:32.152Z,26.20
2018-10-05T14:16:59.863Z,26.20
2018-10-05T14:19:27.530Z,26.10
2018-10-05T14:21:55.291Z,25.90
2018-10-05T14:24:22.982Z,25.80
2018-10-05T14:26:50.661Z,25.90
2018-10-05T14:29:18.373Z,25.80
2018-10-05T14:31:46.223Z,25.80
2018-10-05T14:34:13.913Z,25.70
2018-10-05T14:36:41.625Z,25.60
2018-10-05T14:39:09.462Z,25.40
2018-10-05T14:41:37.320Z,25.30
2018-10-05T14:44:04.996Z,25.20
2018-10-05T14:46:32.723Z,25.00
2018-10-05T14:49:00.488Z,24.90
2018-10-05T14:51:28.184Z,24.80
2018-10-05T14:53:55.913Z,24.60
2018-10-05T14:56:23.629Z,24.50
2018-10-05T14:58:51.329Z,24.30
2018-10-05T15:01:19.017Z,24.10
2018-10-05T15:03:46.745Z,23.80
2018-10-05T15:06:14.598Z,23.50
2018-10-05T15:08:42.338Z,23.30
2018-10-05T15:11:10.046Z,23.00
2018-10-05T15:13:37.769Z,22.80
2018-10-05T15:16:05.469Z,22.50
2018-10-05T15:18:33.146Z,22.20
2018-10-05T15:21:00.865Z,22.10
2018-10-05T15:23:28.541Z,21.90
2018-10-05T15:25:56.241Z,21.70
2018-10-05T15:28:23.953Z,21.60
2018-10-05T15:30:51.664Z,21.40
2018-10-05T15:33:19.337Z,21.30
2018-10-05T15:35:47.050Z,21.20
2018-10-05T15:38:14.741Z,21.00
2018-10-05T15:40:42.457Z,20.90
2018-10-05T15:43:10.172Z,20.80
2018-10-05T15:45:37.885Z,20.70
2018-10-05T15:48:05.609Z,20.50
2018-10-05T15:50:33.325Z,20.40
2018-10-05T15:53:01.116Z,20.30
2018-10-05T15:55:28.781Z,20.10
2018-10-05T15:57:56.577Z,20.00
2018-10-05T16:00:24.257Z,19.90
2018-10-05T16:02:51.984Z,19.90
2018-10-05T16:05:19.795Z,19.80
2018-10-05T16:07:47.470Z,19.70
2018-10-05T16:10:15.173Z,19.60
2018-10-05T16:12:42.870Z,19.50
2018-10-05T16:15:10.566Z,19.40
2018-10-05T16:17:38.305Z,19.40
2018-10-05T16:20:06.098Z,19.20
2018-10-05T16:22:33.769Z,19.20
2018-10-05T16:25:01.542Z,19.00
2018-10-05T16:27:29.224Z,19.00
2018-10-05T16:29:56.893Z,19.00
2018-10-05T16:32:24.641Z,18.90
2018-10-05T16:34:52.408Z,18.80
2018-10-05T16:37:20.181Z,18.80
2018-10-05T16:39:47.810Z,18.70
2018-10-05T16:42:16.601Z,18.70
2018-10-05T16:44:44.332Z,18.60
2018-10-05T16:47:12.037Z,18.50
2018-10-05T16:49:39.794Z,18.40
2018-10-05T16:52:07.506Z,18.40
2018-10-05T16:54:35.211Z,18.30
2018-10-05T16:57:03.108Z,18.30
2018-10-05T16:59:30.787Z,18.20
2018-10-05T17:01:58.464Z,18.20
2018-10-05T17:04:26.202Z,18.10
2018-10-05T17:06:53.877Z,18.10
2018-10-05T17:09:21.622Z,18.10
2018-10-05T17:11:49.329Z,18.00
2018-10-05T17:14:17.009Z,17.90
2018-10-05T17:16:44.710Z,17.90
2018-10-05T17:19:12.373Z,17.80
2018-10-05T17:21:40.074Z,17.80
2018-10-05T17:24:07.809Z,17.70
2018-10-05T17:26:35.509Z,17.70
2018-10-05T17:29:03.211Z,17.70
2018-10-05T17:31:30.940Z,17.60
2018-10-05T17:33:58.645Z,17.50
2018-10-05T17:36:26.316Z,17.50
2018-10-05T17:38:54.025Z,17.50
2018-10-05T17:41:21.696Z,17.50
2018-10-05T17:43:49.490Z,17.40
2018-10-05T17:46:17.236Z,17.40
2018-10-05T17:48:44.929Z,17.40
2018-10-05T17:51:12.665Z,17.30
2018-10-05T17:53:40.409Z,17.30
2018-10-05T17:56:08.211Z,17.30
2018-10-05T17:58:35.833Z,17.30
2018-10-05T18:01:03.605Z,17.20
2018-10-05T18:03:31.284Z,17.20
2018-10-05T18:05:58.991Z,17.20
2018-10-05T18:08:26.696Z,17.00
2018-10-05T18:10:54.391Z,17.00
2018-10-05T18:13:22.060Z,17.00
2018-10-05T18:15:49.923Z,17.00
2018-10-05T18:18:17.589Z,16.90
2018-10-05T18:20:45.305Z,16.90
2018-10-05T18:23:12.987Z,16.90
2018-10-05T18:25:40.671Z,16.90
2018-10-05T18:28:08.347Z,16.90
2018-10-05T18:30:36.052Z,16.90
2018-10-05T18:33:03.761Z,16.90
2018-10-05T18:35:31.461Z,16.80
2018-10-05T18:37:59.166Z,16.80
2018-10-05T18:40:26.852Z,16.80
2018-10-05T18:42:54.585Z,16.70
2018-10-05T18:45:22.241Z,16.60
2018-10-05T18:47:49.909Z,16.60
2018-10-05T18:50:17.617Z,16.60
2018-10-05T18:52:45.304Z,16.60
2018-10-05T18:55:13.014Z,16.60
2018-10-05T18:57:40.689Z,16.50
2018-10-05T19:00:08.520Z,16.50
2018-10-05T19:02:36.196Z,16.50
2018-10-05T19:05:03.894Z,16.50
2018-10-05T19:07:31.602Z,16.40
2018-10-05T19:09:59.317Z,16.40
2018-10-05T19:12:26.985Z,16.40
2018-10-05T19:14:54.834Z,16.30
2018-10-05T19:17:22.569Z,16.30
2018-10-05T19:19:50.304Z,16.30
2018-10-05T19:22:18.013Z,16.30
2018-10-05T19:24:45.687Z,16.30
2018-10-05T19:27:13.402Z,16.30
2018-10-05T19:29:41.072Z,16.20
2018-10-05T19:32:08.881Z,16.20
2018-10-05T19:34:36.595Z,16.20
2018-10-05T19:37:04.303Z,16.10
2018-10-05T19:39:32.009Z,16.10
2018-10-05T19:41:59.876Z,16.10
2018-10-05T19:44:27.557Z,16.10
2018-10-05T19:46:55.265Z,16.00
2018-10-05T19:49:22.977Z,16.10
2018-10-05T19:51:50.664Z,16.00
2018-10-05T19:54:18.381Z,16.00
2018-10-05T19:56:46.073Z,16.00
2018-10-05T19:59:13.793Z,16.00
2018-10-05T20:01:41.468Z,16.00
2018-10-05T20:04:09.165Z,16.00
2018-10-05T20:06:36.913Z,16.00
2018-10-05T20:09:05.645Z,15.90
2018-10-05T20:11:33.353Z,15.90
2018-10-05T20:14:01.065Z,16.00
2018-10-05T20:16:28.801Z,15.90
2018-10-05T20:18:56.484Z,15.90
2018-10-05T20:21:24.161Z,15.90
2018-10-05T20:23:51.945Z,15.90
2018-10-05T20:26:19.616Z,15.90
2018-10-05T20:28:47.324Z,15.90
2018-10-05T20:31:15.037Z,15.80
2018-10-05T20:33:42.749Z,15.90
2018-10-05T20:36:10.786Z,15.80
2018-10-05T20:38:38.234Z,15.80
2018-10-05T20:41:05.865Z,15.80
2018-10-05T20:43:33.589Z,15.80
2018-10-05T20:46:01.265Z,15.80
2018-10-05T20:48:28.982Z,15.80
2018-10-05T20:50:56.656Z,15.80
2018-10-05T20:53:24.425Z,15.70
2018-10-05T20:55:52.129Z,15.70
2018-10-05T20:58:19.801Z,15.70
2018-10-05T21:00:47.508Z,15.70
2018-10-05T21:03:15.213Z,15.70
2018-10-05T21:05:42.948Z,15.70
2018-10-05T21:08:10.644Z,15.60
2018-10-05T21:10:38.350Z,15.60
2018-10-05T21:13:06.061Z,15.60
2018-10-05T21:15:33.743Z,15.60
2018-10-05T21:18:01.473Z,15.60
2018-10-05T21:20:29.192Z,15.60
2018-10-05T21:22:56.880Z,15.60
2018-10-05T21:25:24.593Z,15.60
2018-10-05T21:27:52.281Z,15.60
2018-10-05T21:30:20.073Z,15.60
2018-10-05T21:32:47.783Z,15.60
2018-10-05T21:35:15.485Z,15.50
2018-10-05T21:37:43.144Z,15.60
2018-10-05T21:40:10.860Z,15.50
2018-10-05T21:42:38.558Z,15.50
2018-10-05T21:45:06.344Z,15.50
2018-10-05T21:47:34.006Z,15.50
2018-10-05T21:50:01.682Z,15.50
2018-10-05T21:52:29.418Z,15.50
2018-10-05T21:54:57.120Z,15.40
2018-10-05T21:57:24.841Z,15.40
2018-10-05T21:59:52.517Z,15.40
2018-10-05T22:02:20.232Z,15.40
2018-10-05T22:04:47.902Z,15.40
2018-10-05T22:07:15.617Z,15.30
2018-10-05T22:09:43.330Z,15.30
2018-10-05T22:12:11.011Z,15.30
2018-10-05T22:14:38.791Z,15.30
2018-10-05T22:17:06.522Z,15.30
2018-10-05T22:19:34.335Z,15.30
2018-10-05T22:22:02.093Z,15.30
2018-10-05T22:24:29.768Z,15.30
2018-10-05T22:26:57.438Z,15.30
2018-10-05T22:29:25.244Z,15.20
2018-10-05T22:31:52.925Z,15.30
2018-10-05T22:34:20.633Z,15.30
2018-10-05T22:36:48.334Z,15.20
2018-10-05T22:39:16.987Z,15.30
2018-10-05T22:41:44.694Z,15.20
2018-10-05T22:44:12.361Z,15.20
2018-10-05T22:46:40.078Z,15.10
2018-10-05T22:49:07.772Z,15.20
2018-10-05T22:51:35.505Z,15.10
2018-10-05T22:54:03.185Z,15.10
2018-10-05T22:56:30.872Z,15.10
2018-10-05T22:58:58.589Z,15.20
2018-10-05T23:01:26.276Z,15.20
2018-10-05T23:03:53.984Z,15.10
2018-10-05T23:06:21.694Z,15.10
2018-10-05T23:08:49.365Z,15.10
2018-10-05T23:11:17.045Z,15.10
2018-10-05T23:13:44.755Z,15.10
2018-10-05T23:16:12.451Z,15.10
2018-10-05T23:18:40.246Z,15.10
2018-10-05T23:21:07.974Z,15.10
2018-10-05T23:23:35.642Z,15.10
2018-10-05T23:26:03.370Z,15.10
2018-10-05T23:28:31.057Z,15.00
2018-10-05T23:30:58.745Z,15.00
2018-10-05T23:33:26.528Z,15.00
2018-10-05T23:35:54.216Z,15.00
2018-10-05T23:38:21.909Z,14.90
2018-10-05T23:40:49.593Z,14.90
2018-10-05T23:43:17.319Z,14.90
2018-10-05T23:45:44.988Z,14.90
2018-10-05T23:48:12.737Z,14.90
2018-10-05T23:50:40.433Z,14.90
2018-10-05T23:53:08.102Z,14.90
2018-10-05T23:55:35.824Z,14.90
2018-10-05T23:58:03.509Z,14.90
